createdAt,value
2023-04-29T00:04:05.441Z,12.71
2023-04-29T00:09:07.318Z,12.66
2023-04-29T00:14:09.292Z,12.64
2023-04-29T00:19:11.474Z,12.64
2023-04-29T00:24:13.232Z,12.65
2023-04-29T00:29:14.979Z,12.67
2023-04-29T00:34:16.792Z,12.72
2023-04-29T00:39:18.541Z,12.68
2023-04-29T00:44:20.268Z,12.68
2023-04-29T00:49:22.204Z,12.71
2023-04-29T00:54:24.275Z,12.71
2023-04-29T00:59:32.134Z,12.80
2023-04-29T01:04:33.993Z,12.79
2023-04-29T01:09:53.877Z,12.76
2023-04-29T01:15:23.231Z,12.68
2023-04-29T01:20:26.358Z,12.72
2023-04-29T01:25:28.682Z,12.71
2023-04-29T01:30:55.793Z,12.71
2023-04-29T01:36:26.049Z,12.62
2023-04-29T01:41:44.844Z,12.56
2023-04-29T01:46:59.640Z,12.42
2023-04-29T01:52:07.768Z,12.36
2023-04-29T01:57:10.894Z,12.45
2023-04-29T02:02:25.556Z,12.43
2023-04-29T02:07:35.224Z,12.10
2023-04-29T02:12:37.369Z,12.36
2023-04-29T02:17:39.460Z,12.38
2023-04-29T02:22:41.361Z,12.40
2023-04-29T02:27:43.159Z,12.45
2023-04-29T02:32:44.969Z,12.55
2023-04-29T02:37:49.398Z,12.62
2023-04-29T02:42:51.248Z,12.68
2023-04-29T02:47:53.617Z,12.61
2023-04-29T02:52:55.683Z,12.24
2023-04-29T02:57:57.451Z,12.07
2023-04-29T03:02:59.279Z,11.94
2023-04-29T03:08:01.314Z,11.94
2023-04-29T03:13:04.102Z,11.81
2023-04-29T03:18:07.577Z,11.75
2023-04-29T03:23:09.473Z,11.76
2023-04-29T03:28:11.840Z,11.75
2023-04-29T03:33:13.830Z,11.74
2023-04-29T03:38:15.881Z,11.69
2023-04-29T03:43:18.948Z,11.69
2023-04-29T03:48:21.520Z,11.76
2023-04-29T03:53:23.594Z,11.74
2023-04-29T03:58:25.599Z,11.64
2023-04-29T04:03:28.435Z,11.61
2023-04-29T04:08:32.333Z,11.72
2023-04-29T04:13:53.658Z,11.65
2023-04-29T04:18:56.040Z,11.51
2023-04-29T04:23:58.166Z,11.59
2023-04-29T04:29:00.936Z,11.58
2023-04-29T04:34:14.877Z,11.40
2023-04-29T04:39:17.149Z,11.30
2023-04-29T04:44:19.382Z,11.29
2023-04-29T04:49:34.512Z,11.36
2023-04-29T04:54:36.943Z,11.36
2023-04-29T04:59:47.081Z,11.39
2023-04-29T05:04:49.316Z,11.32
2023-04-29T05:09:53.345Z,11.32
2023-04-29T05:14:57.508Z,11.40
2023-04-29T05:20:01.449Z,11.38
2023-04-29T05:25:04.905Z,11.30
2023-04-29T05:30:09.975Z,11.46
2023-04-29T05:35:12.362Z,11.44
2023-04-29T05:40:14.440Z,11.63
2023-04-29T05:45:17.177Z,11.67
2023-04-29T05:50:19.014Z,11.73
2023-04-29T05:55:20.907Z,11.79
2023-04-29T06:00:24.250Z,11.84
2023-04-29T06:05:32.670Z,11.63
2023-04-29T06:10:53.668Z,11.78
2023-04-29T06:15:55.771Z,11.96
2023-04-29T06:20:58.145Z,12.03
2023-04-29T06:25:59.914Z,12.05
2023-04-29T06:31:03.090Z,12.14
2023-04-29T06:36:05.645Z,12.08
2023-04-29T06:41:40.964Z,12.15
2023-04-29T06:47:09.160Z,12.30
2023-04-29T06:52:40.199Z,12.26
2023-04-29T06:57:42.097Z,12.24
2023-04-29T07:02:43.956Z,12.21
2023-04-29T07:07:46.342Z,12.13
2023-04-29T07:12:48.114Z,12.01
2023-04-29T07:17:50.490Z,12.06
2023-04-29T07:22:52.286Z,12.18
2023-04-29T07:27:54.438Z,12.15
2023-04-29T07:32:56.627Z,12.54
2023-04-29T07:37:59.224Z,12.83
2023-04-29T07:43:04.915Z,12.88
2023-04-29T07:48:06.840Z,13.03
2023-04-29T07:53:08.926Z,13.28
2023-04-29T07:58:11.222Z,13.50
2023-04-29T08:03:13.915Z,13.71
2023-04-29T08:08:15.879Z,13.86
2023-04-29T08:13:18.792Z,13.89
2023-04-29T08:18:21.543Z,13.89
2023-04-29T08:23:23.271Z,13.37
2023-04-29T08:28:25.397Z,13.55
2023-04-29T08:33:27.174Z,13.70
2023-04-29T08:38:29.280Z,13.59
2023-04-29T08:43:31.831Z,13.63
2023-04-29T08:48:36.216Z,13.63
2023-04-29T08:53:38.034Z,13.62
2023-04-29T08:58:42.374Z,13.48
2023-04-29T09:03:50.759Z,13.51
2023-04-29T09:08:52.764Z,13.45
2023-04-29T09:14:04.564Z,13.56
2023-04-29T09:19:06.306Z,13.63
2023-04-29T09:24:08.366Z,13.39
2023-04-29T09:29:14.480Z,13.11
2023-04-29T09:34:16.590Z,13.20
2023-04-29T09:39:20.359Z,13.18
2023-04-29T09:44:35.850Z,13.46
2023-04-29T09:49:40.788Z,13.84
2023-04-29T09:54:44.278Z,14.65
2023-04-29T09:59:46.083Z,15.51
2023-04-29T10:04:54.681Z,16.12
2023-04-29T10:09:58.066Z,16.68
2023-04-29T10:15:23.001Z,16.64
2023-04-29T10:20:26.221Z,16.61
2023-04-29T10:25:29.280Z,16.61
2023-04-29T10:30:32.052Z,16.45
2023-04-29T10:35:34.995Z,16.41
2023-04-29T10:40:42.604Z,16.15
2023-04-29T10:45:44.400Z,16.08
2023-04-29T10:50:49.204Z,16.11
2023-04-29T10:55:58.291Z,16.61
2023-04-29T11:01:00.413Z,16.96
2023-04-29T11:06:09.344Z,16.97
2023-04-29T11:11:14.222Z,16.97
2023-04-29T11:16:16.084Z,17.08
2023-04-29T11:21:17.897Z,17.15
2023-04-29T11:26:20.109Z,16.96
2023-04-29T11:31:21.989Z,16.94
2023-04-29T11:36:23.903Z,17.17
2023-04-29T11:41:26.728Z,17.18
2023-04-29T11:46:31.740Z,17.00
2023-04-29T11:51:33.762Z,17.14
2023-04-29T11:56:38.158Z,16.90
2023-04-29T12:01:41.892Z,16.94
2023-04-29T12:06:43.886Z,16.61
2023-04-29T12:11:50.164Z,16.89
2023-04-29T12:16:52.245Z,17.18
2023-04-29T12:21:53.992Z,17.63
2023-04-29T12:26:56.190Z,17.58
2023-04-29T12:31:57.999Z,17.22
2023-04-29T12:37:00.923Z,17.10
2023-04-29T12:42:03.115Z,16.99
2023-04-29T12:47:11.916Z,17.13
2023-04-29T12:52:14.241Z,16.81
2023-04-29T12:57:16.665Z,16.35
2023-04-29T13:02:18.539Z,16.09
2023-04-29T13:07:20.998Z,16.23
2023-04-29T13:12:22.869Z,16.11
2023-04-29T13:17:24.687Z,16.41
2023-04-29T13:22:26.558Z,16.54
2023-04-29T13:27:28.391Z,16.79
2023-04-29T13:32:43.285Z,16.68
2023-04-29T13:37:48.719Z,16.49
2023-04-29T13:42:56.925Z,16.32
2023-04-29T13:48:16.979Z,16.25
2023-04-29T13:59:08.662Z,16.13
2023-04-29T14:03:54.215Z,16.21
2023-04-29T14:08:56.144Z,16.50
2023-04-29T14:13:58.060Z,16.47
2023-04-29T14:19:01.395Z,16.34
2023-04-29T14:24:05.386Z,16.35
2023-04-29T14:29:07.312Z,16.08
2023-04-29T14:34:09.625Z,15.95
2023-04-29T14:39:11.456Z,15.91
2023-04-29T14:44:13.193Z,15.66
2023-04-29T14:49:15.010Z,15.54
2023-04-29T14:54:16.918Z,15.80
2023-04-29T14:59:18.666Z,15.60
2023-04-29T15:04:20.449Z,15.62
2023-04-29T15:09:23.429Z,15.74
2023-04-29T15:14:25.274Z,15.37
2023-04-29T15:19:27.007Z,15.52
2023-04-29T15:24:28.746Z,15.73
2023-04-29T15:29:32.701Z,15.80
2023-04-29T15:34:34.503Z,15.84
2023-04-29T15:39:36.411Z,15.70
2023-04-29T15:44:38.133Z,15.64
2023-04-29T15:49:41.304Z,15.52
2023-04-29T15:54:43.084Z,15.45
2023-04-29T15:59:44.929Z,15.39
2023-04-29T16:04:46.777Z,15.29
2023-04-29T16:09:48.504Z,15.32
2023-04-29T16:14:50.331Z,15.28
2023-04-29T16:19:52.292Z,15.14
2023-04-29T16:24:54.406Z,14.84
2023-04-29T16:29:56.668Z,14.73
2023-04-29T16:35:00.153Z,14.59
2023-04-29T16:40:04.095Z,14.48
2023-04-29T16:45:06.648Z,14.49
2023-04-29T16:50:09.574Z,14.41
2023-04-29T16:55:12.900Z,14.43
2023-04-29T17:00:14.766Z,14.44
2023-04-29T17:05:18.897Z,14.31
2023-04-29T17:10:20.923Z,14.06
2023-04-29T17:15:22.752Z,14.07
2023-04-29T17:20:24.804Z,13.92
2023-04-29T17:25:26.821Z,13.86
2023-04-29T17:30:28.601Z,13.71
2023-04-29T17:35:30.391Z,13.72
2023-04-29T17:40:32.207Z,13.78
2023-04-29T17:45:39.662Z,13.71
2023-04-29T17:50:41.417Z,13.62
2023-04-29T17:55:46.283Z,13.57
2023-04-29T18:00:48.646Z,13.66
2023-04-29T18:05:50.472Z,13.56
2023-04-29T18:10:52.360Z,13.67
2023-04-29T18:15:55.010Z,13.64
2023-04-29T18:20:56.846Z,13.69
2023-04-29T18:25:58.653Z,13.72
2023-04-29T18:31:00.453Z,13.67
2023-04-29T18:36:02.258Z,13.62
2023-04-29T18:41:05.172Z,13.55
2023-04-29T18:46:07.120Z,13.52
2023-04-29T18:51:09.168Z,13.49
2023-04-29T18:56:10.991Z,13.48
2023-04-29T19:01:12.817Z,13.44
2023-04-29T19:06:14.620Z,13.41
2023-04-29T19:11:16.416Z,13.26
2023-04-29T19:16:18.316Z,13.20
2023-04-29T19:21:20.716Z,13.22
2023-04-29T19:26:22.526Z,13.19
2023-04-29T19:31:24.271Z,13.05
2023-04-29T19:36:26.660Z,12.95
2023-04-29T19:41:28.421Z,12.95
2023-04-29T19:46:30.434Z,12.93
2023-04-29T19:51:32.583Z,12.93
2023-04-29T19:56:34.716Z,12.80
2023-04-29T20:01:36.565Z,12.80
2023-04-29T20:06:38.479Z,12.82
2023-04-29T20:11:40.403Z,12.77
2023-04-29T20:16:42.227Z,12.77
2023-04-29T20:21:44.026Z,12.71
2023-04-29T20:26:45.853Z,12.72
2023-04-29T20:31:47.864Z,12.72
2023-04-29T20:36:49.661Z,12.69
2023-04-29T20:41:51.714Z,12.50
2023-04-29T20:46:54.254Z,12.55
2023-04-29T20:51:56.300Z,12.56
2023-04-29T20:56:58.038Z,12.50
2023-04-29T21:02:00.025Z,12.49
2023-04-29T21:07:06.704Z,12.50
2023-04-29T21:12:08.470Z,12.39
2023-04-29T21:17:10.279Z,12.31
2023-04-29T21:22:12.088Z,12.18
2023-04-29T21:27:13.887Z,12.01
2023-04-29T21:32:21.552Z,11.95
2023-04-29T21:37:23.742Z,11.87
2023-04-29T21:42:26.332Z,11.81
2023-04-29T21:47:29.808Z,11.79
2023-04-29T21:52:35.147Z,11.74
2023-04-29T21:57:44.110Z,11.71
2023-04-29T22:02:47.011Z,11.70
2023-04-29T22:07:48.904Z,11.70
2023-04-29T22:12:50.952Z,11.60
2023-04-29T22:17:52.873Z,11.60
2023-04-29T22:22:55.052Z,11.58
2023-04-29T22:27:56.964Z,11.52
2023-04-29T22:32:58.781Z,11.51
2023-04-29T22:38:00.671Z,11.50
2023-04-29T22:43:02.440Z,11.50
2023-04-29T22:48:04.465Z,11.52
2023-04-29T22:53:06.694Z,11.56
2023-04-29T22:58:08.521Z,11.51
2023-04-29T23:03:10.308Z,11.45
2023-04-29T23:08:12.593Z,11.46
2023-04-29T23:13:14.388Z,11.41
2023-04-29T23:18:16.580Z,11.38
2023-04-29T23:23:18.641Z,11.32
2023-04-29T23:28:21.073Z,11.36
2023-04-29T23:33:22.895Z,11.33
2023-04-29T23:38:24.859Z,11.28
2023-04-29T23:43:26.596Z,11.30
2023-04-29T23:48:28.342Z,11.26
2023-04-29T23:53:30.091Z,11.22
2023-04-29T23:58:31.987Z,11.25
